createdAt,value
2023-10-07T00:00:34.083Z,3.00
2023-10-07T00:01:38.500Z,3.00
2023-10-07T00:02:40.824Z,3.00
2023-10-07T00:03:44.176Z,3.00
2023-10-07T00:04:46.704Z,3.00
2023-10-07T00:05:51.792Z,3.00
2023-10-07T00:06:54.838Z,3.00
2023-10-07T00:08:01.777Z,3.00
2023-10-07T00:09:11.171Z,2.67
2023-10-07T00:10:16.721Z,2.00
2023-10-07T00:11:21.863Z,2.00
2023-10-07T00:12:26.876Z,2.00
2023-10-07T00:13:32.608Z,2.00
2023-10-07T00:14:37.468Z,2.00
2023-10-07T00:15:40.741Z,2.00
2023-10-07T00:16:44.778Z,2.00
2023-10-07T00:17:48.462Z,2.00
2023-10-07T00:18:50.666Z,2.00
2023-10-07T00:19:54.129Z,2.00
2023-10-07T00:20:57.246Z,2.00
2023-10-07T00:22:00.009Z,2.00
2023-10-07T00:23:03.224Z,2.00
2023-10-07T00:24:07.669Z,2.00
2023-10-07T00:25:13.597Z,2.00
2023-10-07T00:26:17.499Z,2.00
2023-10-07T00:27:27.977Z,2.00
2023-10-07T00:28:33.753Z,2.83
2023-10-07T00:29:53.978Z,3.00
2023-10-07T00:30:56.950Z,3.00
2023-10-07T00:32:01.154Z,3.00
2023-10-07T00:33:04.321Z,3.00
2023-10-07T00:34:14.835Z,3.00
2023-10-07T00:35:17.824Z,3.00
2023-10-07T00:36:43.040Z,3.00
2023-10-07T00:37:45.687Z,3.00
2023-10-07T00:38:48.985Z,3.00
2023-10-07T00:39:52.553Z,3.00
2023-10-07T00:40:55.744Z,3.00
2023-10-07T00:41:59.989Z,3.00
2023-10-07T00:43:08.617Z,3.00
2023-10-07T00:44:18.304Z,3.00
2023-10-07T00:45:21.571Z,3.00
2023-10-07T00:46:30.073Z,3.00
2023-10-07T00:47:35.859Z,3.00
2023-10-07T00:48:48.038Z,3.00
2023-10-07T00:49:56.131Z,3.00
2023-10-07T00:50:59.075Z,3.00
2023-10-07T00:52:04.640Z,3.00
2023-10-07T00:53:09.549Z,3.00
2023-10-07T00:54:19.867Z,3.00
2023-10-07T00:55:29.170Z,3.00
2023-10-07T00:56:35.599Z,3.00
2023-10-07T00:57:48.883Z,3.00
2023-10-07T00:58:54.244Z,3.00
2023-10-07T00:59:59.241Z,3.00
2023-10-07T01:01:06.525Z,3.00
2023-10-07T01:02:19.766Z,3.00
2023-10-07T01:03:33.335Z,3.00
2023-10-07T01:04:41.942Z,3.00
2023-10-07T01:05:56.404Z,3.00
2023-10-07T01:07:04.497Z,3.00
2023-10-07T01:08:08.951Z,3.00
2023-10-07T01:09:12.242Z,3.00
2023-10-07T01:10:15.441Z,3.00
2023-10-07T01:11:23.561Z,3.00
2023-10-07T01:12:37.211Z,3.00
2023-10-07T01:13:47.293Z,3.00
2023-10-07T01:14:51.187Z,3.00
2023-10-07T01:15:54.943Z,3.00
2023-10-07T01:17:01.785Z,3.00
2023-10-07T01:18:06.394Z,4.00
2023-10-07T01:19:20.500Z,4.00
2023-10-07T01:20:26.320Z,4.00
2023-10-07T01:21:33.295Z,4.00
2023-10-07T01:22:37.752Z,4.00
2023-10-07T01:23:41.033Z,4.00
2023-10-07T01:24:47.519Z,4.00
2023-10-07T01:25:52.407Z,4.00
2023-10-07T01:26:54.660Z,4.00
2023-10-07T01:27:58.031Z,4.00
2023-10-07T01:29:05.944Z,4.00
2023-10-07T01:30:17.564Z,4.00
2023-10-07T01:31:20.299Z,4.00
2023-10-07T01:32:23.628Z,4.00
2023-10-07T01:33:36.372Z,4.00
2023-10-07T01:34:40.118Z,4.00
2023-10-07T01:36:02.320Z,4.00
2023-10-07T01:37:06.632Z,4.00
2023-10-07T01:38:10.301Z,4.00
2023-10-07T01:39:14.514Z,4.00
2023-10-07T01:40:17.860Z,4.00
2023-10-07T01:41:23.048Z,4.00
2023-10-07T01:42:27.973Z,4.00
2023-10-07T01:43:31.234Z,4.00
2023-10-07T01:44:40.110Z,4.00
2023-10-07T01:45:43.288Z,4.00
2023-10-07T01:46:45.533Z,4.00
2023-10-07T01:47:49.115Z,4.00
2023-10-07T01:48:56.762Z,4.00
2023-10-07T01:49:59.940Z,4.00
2023-10-07T01:51:06.311Z,4.00
2023-10-07T01:52:08.457Z,4.00
2023-10-07T01:53:13.068Z,4.00
2023-10-07T01:54:15.198Z,4.00
2023-10-07T01:55:18.771Z,4.00
2023-10-07T01:56:21.167Z,4.00
2023-10-07T01:57:24.569Z,4.00
2023-10-07T01:58:26.856Z,4.00
2023-10-07T01:59:30.372Z,4.00
2023-10-07T02:00:41.979Z,4.00
2023-10-07T02:01:51.101Z,4.00
2023-10-07T02:03:01.057Z,4.00
2023-10-07T02:04:08.815Z,4.00
2023-10-07T02:05:13.729Z,4.00
2023-10-07T02:06:19.415Z,4.00
2023-10-07T02:07:23.050Z,4.00
2023-10-07T02:08:26.916Z,4.00
2023-10-07T02:09:36.228Z,4.00
2023-10-07T02:10:41.988Z,4.00
2023-10-07T02:11:45.190Z,4.00
2023-10-07T02:12:47.738Z,4.00
2023-10-07T02:13:52.908Z,4.00
2023-10-07T02:14:55.127Z,4.00
2023-10-07T02:15:58.387Z,4.00
2023-10-07T02:17:00.966Z,4.00
2023-10-07T02:18:05.484Z,4.00
2023-10-07T02:19:08.752Z,4.00
2023-10-07T02:20:23.981Z,4.00
2023-10-07T02:21:28.072Z,4.00
2023-10-07T02:22:31.999Z,4.00
2023-10-07T02:23:38.657Z,4.00
2023-10-07T02:24:42.717Z,4.00
2023-10-07T02:25:50.361Z,4.00
2023-10-07T02:26:55.921Z,4.00
2023-10-07T02:27:58.113Z,4.00
2023-10-07T02:29:08.941Z,4.00
2023-10-07T02:30:20.784Z,4.00
2023-10-07T02:31:28.240Z,4.00
2023-10-07T02:32:33.278Z,4.00
2023-10-07T02:33:43.193Z,4.00
2023-10-07T02:34:53.208Z,4.00
2023-10-07T02:35:57.122Z,4.00
2023-10-07T02:37:12.765Z,4.00
2023-10-07T02:38:24.960Z,4.00
2023-10-07T02:39:49.069Z,4.00
2023-10-07T02:40:53.950Z,4.00
2023-10-07T02:41:57.976Z,4.00
2023-10-07T02:43:00.246Z,4.00
2023-10-07T02:44:06.456Z,4.00
2023-10-07T02:45:21.277Z,4.00
2023-10-07T02:46:33.240Z,4.00
2023-10-07T02:47:35.921Z,4.00
2023-10-07T02:48:39.988Z,4.00
2023-10-07T02:49:48.136Z,3.33
2023-10-07T02:50:53.254Z,3.00
2023-10-07T02:51:57.286Z,3.00
2023-10-07T02:53:02.842Z,3.00
2023-10-07T02:54:08.310Z,3.00
2023-10-07T02:55:30.937Z,3.33
2023-10-07T02:56:45.711Z,4.00
2023-10-07T02:57:56.395Z,4.00
2023-10-07T02:59:02.566Z,4.00
2023-10-07T03:00:16.318Z,4.00
2023-10-07T03:01:19.739Z,4.00
2023-10-07T03:02:38.547Z,4.00
2023-10-07T03:03:42.447Z,4.00
2023-10-07T03:04:56.218Z,4.00
2023-10-07T03:05:59.833Z,4.00
2023-10-07T03:07:14.259Z,4.00
2023-10-07T03:08:20.851Z,4.00
2023-10-07T03:09:26.803Z,4.00
2023-10-07T03:10:43.891Z,4.00
2023-10-07T03:11:50.416Z,4.00
2023-10-07T03:12:58.594Z,4.00
2023-10-07T03:14:04.554Z,4.00
2023-10-07T03:15:22.014Z,4.00
2023-10-07T03:16:43.778Z,4.00
2023-10-07T03:17:47.827Z,3.33
2023-10-07T03:18:56.637Z,3.00
2023-10-07T03:20:19.816Z,3.00
2023-10-07T03:21:23.158Z,3.00
2023-10-07T03:22:29.931Z,3.00
2023-10-07T03:23:34.956Z,3.00
2023-10-07T03:24:43.228Z,3.00
2023-10-07T03:26:06.989Z,3.00
2023-10-07T03:27:12.888Z,3.00
2023-10-07T03:28:18.493Z,3.00
2023-10-07T03:29:31.997Z,3.00
2023-10-07T03:30:38.115Z,3.00
2023-10-07T03:31:48.943Z,3.00
2023-10-07T03:32:59.637Z,3.00
2023-10-07T03:34:02.856Z,3.00
2023-10-07T03:35:18.472Z,3.00
2023-10-07T03:36:42.658Z,3.00
2023-10-07T03:37:45.754Z,3.00
2023-10-07T03:38:56.374Z,3.00
2023-10-07T03:40:24.433Z,3.00
2023-10-07T03:41:34.936Z,3.00
2023-10-07T03:42:39.222Z,3.00
2023-10-07T03:43:42.544Z,3.00
2023-10-07T03:44:47.433Z,3.00
2023-10-07T03:45:51.312Z,3.00
2023-10-07T03:46:56.083Z,3.00
2023-10-07T03:47:59.927Z,3.00
2023-10-07T03:49:02.432Z,3.00
2023-10-07T03:50:26.135Z,3.00
2023-10-07T03:51:32.128Z,3.00
2023-10-07T03:52:38.746Z,3.00
2023-10-07T03:53:45.967Z,2.00
2023-10-07T03:54:49.713Z,2.00
2023-10-07T03:55:52.911Z,2.00
2023-10-07T03:56:57.579Z,2.00
2023-10-07T03:58:00.106Z,2.00
2023-10-07T03:59:02.370Z,2.00
2023-10-07T04:00:12.186Z,2.00
2023-10-07T04:01:18.177Z,2.00
2023-10-07T04:02:38.081Z,2.00
2023-10-07T04:03:41.246Z,2.00
2023-10-07T04:04:44.484Z,2.00
2023-10-07T04:05:50.578Z,2.00
2023-10-07T04:06:54.440Z,2.00
2023-10-07T04:07:56.595Z,2.00
2023-10-07T04:09:07.071Z,2.00
2023-10-07T04:10:16.820Z,2.00
2023-10-07T04:11:20.937Z,2.00
2023-10-07T04:12:27.427Z,2.00
2023-10-07T04:13:30.595Z,2.00
2023-10-07T04:14:36.661Z,2.00
2023-10-07T04:15:52.273Z,2.00
2023-10-07T04:16:55.772Z,2.00
2023-10-07T04:18:01.087Z,2.00
2023-10-07T04:19:31.193Z,2.00
2023-10-07T04:20:52.351Z,2.00
2023-10-07T04:21:56.248Z,2.00
2023-10-07T04:23:02.058Z,2.00
2023-10-07T04:24:06.912Z,2.00
2023-10-07T04:25:18.801Z,2.00
2023-10-07T04:26:21.534Z,2.00
2023-10-07T04:27:27.771Z,2.00
2023-10-07T04:28:30.052Z,2.00
2023-10-07T04:29:33.897Z,2.00
2023-10-07T04:30:40.381Z,2.00
2023-10-07T04:31:46.488Z,2.00
2023-10-07T04:32:54.055Z,2.00
2023-10-07T04:34:01.930Z,2.00
2023-10-07T04:35:17.637Z,2.00
2023-10-07T04:36:35.533Z,3.00
2023-10-07T04:37:49.126Z,3.00
2023-10-07T04:38:55.258Z,3.00
2023-10-07T04:40:15.860Z,3.00
2023-10-07T04:41:32.108Z,3.00
2023-10-07T04:42:39.047Z,3.00
2023-10-07T04:43:51.282Z,3.00
2023-10-07T04:45:19.026Z,3.00
2023-10-07T04:46:23.771Z,3.00
2023-10-07T04:47:41.252Z,3.00
2023-10-07T04:48:55.352Z,3.00
2023-10-07T04:50:01.535Z,3.00
2023-10-07T04:51:04.672Z,3.00
2023-10-07T04:52:11.922Z,3.17
2023-10-07T04:53:14.157Z,4.00
2023-10-07T04:54:22.285Z,4.00
2023-10-07T04:55:27.610Z,4.00
2023-10-07T04:56:33.617Z,4.00
2023-10-07T04:57:57.837Z,4.00
2023-10-07T05:00:10.848Z,5.00
2023-10-07T05:01:23.823Z,5.00
2023-10-07T05:02:27.192Z,5.00
2023-10-07T05:03:30.507Z,5.00
2023-10-07T05:04:33.966Z,5.00
2023-10-07T05:05:36.456Z,5.00
2023-10-07T05:06:41.535Z,5.00
2023-10-07T05:07:44.799Z,5.00
2023-10-07T05:08:47.118Z,5.00
2023-10-07T05:09:50.560Z,5.00
2023-10-07T05:10:54.082Z,5.00
2023-10-07T05:11:58.906Z,5.00
2023-10-07T05:13:07.473Z,5.00
2023-10-07T05:14:10.894Z,5.00
2023-10-07T05:15:15.119Z,5.00
2023-10-07T05:16:18.349Z,5.00
2023-10-07T05:17:24.350Z,5.00
2023-10-07T05:18:26.808Z,5.00
2023-10-07T05:19:31.664Z,5.00
2023-10-07T05:20:37.236Z,5.00
2023-10-07T05:21:39.819Z,5.00
2023-10-07T05:22:43.519Z,5.00
2023-10-07T05:23:45.630Z,5.00
2023-10-07T05:24:52.933Z,5.00
2023-10-07T05:25:55.241Z,5.00
2023-10-07T05:27:01.276Z,5.00
2023-10-07T05:28:12.007Z,5.00
2023-10-07T05:29:16.214Z,5.00
2023-10-07T05:30:19.652Z,5.00
2023-10-07T05:31:22.813Z,5.00
2023-10-07T05:32:27.158Z,5.00
2023-10-07T05:33:33.335Z,5.00
2023-10-07T05:34:35.596Z,5.00
2023-10-07T05:35:38.835Z,5.00
2023-10-07T05:36:41.491Z,5.00
2023-10-07T05:37:46.009Z,5.00
2023-10-07T05:38:48.875Z,5.00
2023-10-07T05:39:53.119Z,5.00
2023-10-07T05:41:01.415Z,5.00
2023-10-07T05:42:07.171Z,5.00
2023-10-07T05:43:11.118Z,5.00
2023-10-07T05:44:15.867Z,5.00
2023-10-07T05:45:19.078Z,5.00
2023-10-07T05:46:22.310Z,5.00
2023-10-07T05:47:25.179Z,5.00
2023-10-07T05:48:28.403Z,5.00
2023-10-07T05:49:32.414Z,5.00
2023-10-07T05:50:35.912Z,5.00
2023-10-07T05:51:38.231Z,5.00
2023-10-07T05:52:41.736Z,5.00
2023-10-07T05:53:49.379Z,5.50
2023-10-07T05:54:57.948Z,6.00
2023-10-07T05:56:00.861Z,6.00
2023-10-07T05:57:05.679Z,6.00
2023-10-07T05:58:07.884Z,6.00
2023-10-07T05:59:12.870Z,6.00
2023-10-07T06:00:18.329Z,6.00
2023-10-07T06:01:21.471Z,6.00
2023-10-07T06:02:24.321Z,6.00
2023-10-07T06:03:27.786Z,6.00
2023-10-07T06:04:30.071Z,6.00
2023-10-07T06:05:34.828Z,6.00
2023-10-07T06:06:37.083Z,6.00
2023-10-07T06:07:41.009Z,6.00
2023-10-07T06:08:43.330Z,6.00
2023-10-07T06:09:46.495Z,6.00
2023-10-07T06:10:53.215Z,6.00
2023-10-07T06:11:58.796Z,6.00
2023-10-07T06:13:01.005Z,6.00
2023-10-07T06:14:06.097Z,6.00
2023-10-07T06:15:12.053Z,6.00
2023-10-07T06:16:15.776Z,6.00
2023-10-07T06:17:17.946Z,6.00
2023-10-07T06:18:22.621Z,6.00
2023-10-07T06:19:25.502Z,6.00
2023-10-07T06:20:27.915Z,6.00
2023-10-07T06:21:33.078Z,6.00
2023-10-07T06:22:40.368Z,6.00
2023-10-07T06:23:43.550Z,6.00
2023-10-07T06:24:46.001Z,6.00
2023-10-07T06:25:51.129Z,6.00
2023-10-07T06:26:54.983Z,6.00
2023-10-07T06:27:59.358Z,6.00
2023-10-07T06:29:08.100Z,6.00
2023-10-07T06:30:17.948Z,6.00
2023-10-07T06:31:23.980Z,6.00
2023-10-07T06:32:42.831Z,7.00
2023-10-07T06:33:48.311Z,7.00
2023-10-07T06:34:53.212Z,7.00
2023-10-07T06:35:55.510Z,7.00
2023-10-07T06:36:58.670Z,7.00
2023-10-07T06:38:00.847Z,7.00
2023-10-07T06:39:06.832Z,7.00
2023-10-07T06:40:24.637Z,7.00
2023-10-07T06:41:30.359Z,7.00
2023-10-07T06:42:32.682Z,7.00
2023-10-07T06:43:35.831Z,7.00
2023-10-07T06:44:39.614Z,7.00
2023-10-07T06:45:45.869Z,7.00
2023-10-07T06:46:56.156Z,7.00
2023-10-07T06:48:00.847Z,7.00
2023-10-07T06:49:03.711Z,7.00
2023-10-07T06:50:08.041Z,7.00
2023-10-07T06:51:12.526Z,7.00
2023-10-07T06:52:17.214Z,7.00
2023-10-07T06:53:24.093Z,7.00
2023-10-07T06:54:33.468Z,7.00
2023-10-07T06:55:42.314Z,7.00
2023-10-07T06:56:46.466Z,7.00
2023-10-07T06:57:49.296Z,7.00
2023-10-07T06:58:55.705Z,7.00
2023-10-07T06:59:57.908Z,7.00
2023-10-07T07:01:11.843Z,7.00
2023-10-07T07:02:24.921Z,7.00
2023-10-07T07:03:28.706Z,7.00
2023-10-07T07:04:31.427Z,7.00
2023-10-07T07:05:36.372Z,7.00
2023-10-07T07:06:43.971Z,7.00
2023-10-07T07:07:49.303Z,7.00
2023-10-07T07:08:52.081Z,7.00
2023-10-07T07:09:59.573Z,7.00
2023-10-07T07:11:11.170Z,7.00
2023-10-07T07:12:18.034Z,7.67
2023-10-07T07:13:27.169Z,8.00
2023-10-07T07:14:30.071Z,8.00
2023-10-07T07:15:37.767Z,8.00
2023-10-07T07:16:43.652Z,8.00
2023-10-07T07:17:47.078Z,8.00
2023-10-07T07:18:49.271Z,8.00
2023-10-07T07:20:13.300Z,8.00
2023-10-07T07:21:32.720Z,8.00
2023-10-07T07:22:35.317Z,8.00
2023-10-07T07:23:40.978Z,8.00
2023-10-07T07:24:43.399Z,8.00
2023-10-07T07:25:51.136Z,8.00
2023-10-07T07:26:53.966Z,8.00
2023-10-07T07:27:59.550Z,8.00
2023-10-07T07:29:05.806Z,8.00
2023-10-07T07:30:15.432Z,8.00
2023-10-07T07:31:20.834Z,8.00
2023-10-07T07:32:29.384Z,8.00
2023-10-07T07:33:36.411Z,8.00
2023-10-07T07:34:39.718Z,8.00
2023-10-07T07:35:45.193Z,8.00
2023-10-07T07:36:57.252Z,8.00
2023-10-07T07:38:04.199Z,8.00
2023-10-07T07:39:10.854Z,8.00
2023-10-07T07:40:35.985Z,8.00
2023-10-07T07:41:56.557Z,8.00
2023-10-07T07:42:59.121Z,8.00
2023-10-07T07:44:03.557Z,8.00
2023-10-07T07:45:16.477Z,8.00
2023-10-07T07:46:30.341Z,8.00
2023-10-07T07:47:34.254Z,8.00
2023-10-07T07:48:39.292Z,8.00
2023-10-07T07:49:42.414Z,8.00
2023-10-07T07:50:45.661Z,8.00
2023-10-07T07:51:52.720Z,7.50
2023-10-07T07:52:55.916Z,7.00
2023-10-07T07:53:59.321Z,7.00
2023-10-07T07:55:02.611Z,7.00
2023-10-07T07:56:04.941Z,7.00
2023-10-07T07:57:09.255Z,7.00
2023-10-07T07:58:12.047Z,7.00
2023-10-07T07:59:19.450Z,7.00
2023-10-07T08:00:22.040Z,7.00
2023-10-07T08:01:30.249Z,7.00
2023-10-07T08:02:37.441Z,7.00
2023-10-07T08:03:40.876Z,7.00
2023-10-07T08:04:47.383Z,7.00
2023-10-07T08:05:50.971Z,7.00
2023-10-07T08:06:53.165Z,7.00
2023-10-07T08:07:56.936Z,7.00
2023-10-07T08:08:59.333Z,7.00
2023-10-07T08:10:05.266Z,7.00
2023-10-07T08:11:08.861Z,7.00
2023-10-07T08:12:12.274Z,6.33
2023-10-07T08:13:18.660Z,6.00
2023-10-07T08:14:23.536Z,6.00
2023-10-07T08:15:25.751Z,6.00
2023-10-07T08:16:28.948Z,6.00
2023-10-07T08:17:31.615Z,6.00
2023-10-07T08:18:36.196Z,6.00
2023-10-07T08:19:39.317Z,6.00
2023-10-07T08:20:45.888Z,6.00
2023-10-07T08:21:52.806Z,6.00
2023-10-07T08:22:57.104Z,6.00
2023-10-07T08:24:03.380Z,6.00
2023-10-07T08:25:09.672Z,6.00
2023-10-07T08:26:13.475Z,6.00
2023-10-07T08:27:30.636Z,6.00
2023-10-07T08:28:43.778Z,6.00
2023-10-07T08:29:46.076Z,6.00
2023-10-07T08:30:49.491Z,6.00
2023-10-07T08:31:51.776Z,6.00
2023-10-07T08:32:54.982Z,6.00
2023-10-07T08:34:11.671Z,6.00
2023-10-07T08:35:19.450Z,6.00
2023-10-07T08:36:30.448Z,6.00
2023-10-07T08:37:34.503Z,6.00
2023-10-07T08:38:39.453Z,6.00
2023-10-07T08:39:46.644Z,6.00
2023-10-07T08:40:57.679Z,6.00
2023-10-07T08:42:13.862Z,6.00
2023-10-07T08:43:21.407Z,6.00
2023-10-07T08:44:31.276Z,6.00
2023-10-07T08:45:40.644Z,6.00
2023-10-07T08:46:50.380Z,6.00
2023-10-07T08:47:53.260Z,6.00
2023-10-07T08:49:05.648Z,6.00
2023-10-07T08:50:09.333Z,6.00
2023-10-07T08:51:15.868Z,6.00
2023-10-07T08:52:20.357Z,6.00
2023-10-07T08:53:24.997Z,6.00
2023-10-07T08:54:27.702Z,6.00
2023-10-07T08:55:31.547Z,6.00
2023-10-07T08:56:37.260Z,6.00
2023-10-07T08:57:41.457Z,6.00
2023-10-07T08:58:45.920Z,6.00
2023-10-07T08:59:53.489Z,6.00
2023-10-07T09:00:57.556Z,6.00
2023-10-07T09:02:01.772Z,6.00
2023-10-07T09:03:15.979Z,6.00
2023-10-07T09:04:20.886Z,6.00
2023-10-07T09:05:25.926Z,5.17
2023-10-07T09:06:34.655Z,5.00
2023-10-07T09:07:37.921Z,5.00
2023-10-07T09:08:42.561Z,5.00
2023-10-07T09:09:45.643Z,5.00
2023-10-07T09:10:49.851Z,5.00
2023-10-07T09:11:53.323Z,5.00
2023-10-07T09:13:05.361Z,5.00
2023-10-07T09:14:08.318Z,5.00
2023-10-07T09:15:21.176Z,5.00
2023-10-07T09:16:26.393Z,5.00
2023-10-07T09:17:31.119Z,5.00
2023-10-07T09:18:36.515Z,5.00
2023-10-07T09:19:44.689Z,5.00
2023-10-07T09:20:51.642Z,5.00
2023-10-07T09:21:58.657Z,5.00
2023-10-07T09:23:02.530Z,5.00
2023-10-07T09:24:06.769Z,5.00
2023-10-07T09:25:18.183Z,5.00
2023-10-07T09:26:31.473Z,5.00
2023-10-07T09:27:38.352Z,5.00
2023-10-07T09:28:45.713Z,5.00
2023-10-07T09:29:53.028Z,5.00
2023-10-07T09:30:56.762Z,5.00
2023-10-07T09:32:05.835Z,5.00
2023-10-07T09:33:14.530Z,5.00
2023-10-07T09:34:31.942Z,5.00
2023-10-07T09:35:38.499Z,5.00
2023-10-07T09:36:41.526Z,5.00
2023-10-07T09:37:44.009Z,5.00
2023-10-07T09:38:49.706Z,5.00
2023-10-07T09:39:55.644Z,5.00
2023-10-07T09:41:13.215Z,5.00
2023-10-07T09:42:36.516Z,5.00
2023-10-07T09:43:40.400Z,5.00
2023-10-07T09:44:42.880Z,5.00
2023-10-07T09:45:48.625Z,5.00
2023-10-07T09:46:54.263Z,4.33
2023-10-07T09:48:01.964Z,4.00
2023-10-07T09:49:04.588Z,4.00
2023-10-07T09:50:20.776Z,4.00
2023-10-07T09:51:26.667Z,4.00
2023-10-07T09:52:33.843Z,4.00
2023-10-07T09:53:47.977Z,4.67
2023-10-07T09:55:21.966Z,4.00
2023-10-07T09:56:33.597Z,4.00
2023-10-07T09:57:50.579Z,4.00
2023-10-07T09:59:04.223Z,4.00
2023-10-07T10:00:39.261Z,4.00
2023-10-07T10:01:55.412Z,4.00
2023-10-07T10:03:16.978Z,4.00
2023-10-07T10:04:47.991Z,4.00
2023-10-07T10:06:05.213Z,4.00
2023-10-07T10:07:45.799Z,4.00
2023-10-07T10:08:59.266Z,4.00
2023-10-07T10:10:06.802Z,4.00
2023-10-07T10:11:31.277Z,3.83
2023-10-07T10:12:54.377Z,3.00
2023-10-07T10:14:11.893Z,3.00
2023-10-07T10:15:31.021Z,3.00
2023-10-07T10:16:46.005Z,3.00
2023-10-07T10:17:50.787Z,3.00
2023-10-07T10:19:13.511Z,3.00
2023-10-07T10:20:19.845Z,3.00
2023-10-07T10:21:25.073Z,3.00
2023-10-07T10:22:27.480Z,3.00
2023-10-07T10:23:34.269Z,3.00
2023-10-07T10:24:43.007Z,3.50
2023-10-07T10:25:45.289Z,4.00
2023-10-07T10:26:51.548Z,4.00
2023-10-07T10:28:00.066Z,4.00
2023-10-07T10:29:08.218Z,4.00
2023-10-07T10:30:23.066Z,4.00
2023-10-07T10:31:33.435Z,4.00
2023-10-07T10:32:38.538Z,4.00
2023-10-07T10:33:41.160Z,4.00
2023-10-07T10:34:46.497Z,4.00
2023-10-07T10:35:53.023Z,4.00
2023-10-07T10:36:58.019Z,4.00
2023-10-07T10:38:00.841Z,4.00
2023-10-07T10:39:29.151Z,4.00
2023-10-07T10:40:40.821Z,4.00
2023-10-07T10:41:44.074Z,4.00
2023-10-07T10:42:48.428Z,4.00
2023-10-07T10:43:51.714Z,4.00
2023-10-07T10:44:54.370Z,4.00
2023-10-07T10:46:06.339Z,4.00
2023-10-07T10:47:09.426Z,4.00
2023-10-07T10:48:16.057Z,4.00
2023-10-07T10:49:22.136Z,4.00
2023-10-07T10:50:25.425Z,4.00
2023-10-07T10:51:30.710Z,4.00
2023-10-07T10:52:34.182Z,4.00
2023-10-07T10:53:41.964Z,4.00
2023-10-07T10:54:45.512Z,4.00
2023-10-07T10:55:48.695Z,4.00
2023-10-07T10:56:52.419Z,4.00
2023-10-07T10:57:56.301Z,4.00
2023-10-07T10:58:58.574Z,4.00
2023-10-07T11:00:10.101Z,4.00
2023-10-07T11:01:12.900Z,4.00
2023-10-07T11:02:19.391Z,4.00
2023-10-07T11:03:22.691Z,4.00
2023-10-07T11:04:26.239Z,4.00
2023-10-07T11:05:28.615Z,4.00
2023-10-07T11:06:32.374Z,4.00
2023-10-07T11:07:37.252Z,4.00
2023-10-07T11:08:41.476Z,4.00
2023-10-07T11:09:48.704Z,4.00
2023-10-07T11:10:56.928Z,4.00
2023-10-07T11:11:59.372Z,4.83
2023-10-07T11:13:09.379Z,5.00
2023-10-07T11:14:14.568Z,5.00
2023-10-07T11:15:21.030Z,5.00
2023-10-07T11:16:23.753Z,5.00
2023-10-07T11:17:26.989Z,5.00
2023-10-07T11:18:32.444Z,5.00
2023-10-07T11:19:41.702Z,5.00
2023-10-07T11:20:44.565Z,5.00
2023-10-07T11:21:50.269Z,5.00
2023-10-07T11:22:54.464Z,5.00
2023-10-07T11:24:00.160Z,5.00
2023-10-07T11:25:07.409Z,5.00
2023-10-07T11:26:10.629Z,5.00
2023-10-07T11:27:14.041Z,5.00
2023-10-07T11:28:21.282Z,5.00
2023-10-07T11:29:31.487Z,5.00
2023-10-07T11:30:45.464Z,5.00
2023-10-07T11:31:48.058Z,5.00
2023-10-07T11:32:51.445Z,5.00
2023-10-07T11:33:54.154Z,5.00
2023-10-07T11:34:58.957Z,5.00
2023-10-07T11:36:03.784Z,5.00
2023-10-07T11:37:10.276Z,5.00
2023-10-07T11:38:13.231Z,5.00
2023-10-07T11:39:16.636Z,5.00
2023-10-07T11:40:21.392Z,5.00
2023-10-07T11:41:24.657Z,5.00
2023-10-07T11:42:27.888Z,5.00
2023-10-07T11:43:31.397Z,5.00
2023-10-07T11:44:33.532Z,5.00
2023-10-07T11:45:37.081Z,5.00
2023-10-07T11:46:41.979Z,5.00
2023-10-07T11:47:46.096Z,5.00
2023-10-07T11:48:48.358Z,5.00
2023-10-07T11:49:51.950Z,5.00
2023-10-07T11:50:55.873Z,5.00
2023-10-07T11:51:59.804Z,5.00
2023-10-07T11:53:02.247Z,5.00
2023-10-07T11:54:06.788Z,5.00
2023-10-07T11:55:10.664Z,5.00
2023-10-07T11:56:15.892Z,5.00
2023-10-07T11:57:19.728Z,5.00
2023-10-07T11:58:24.977Z,5.00
2023-10-07T11:59:27.680Z,5.00
2023-10-07T12:00:35.582Z,5.00
2023-10-07T12:01:39.478Z,5.00
2023-10-07T12:02:41.733Z,5.00
2023-10-07T12:03:45.037Z,5.00
2023-10-07T12:04:48.766Z,5.00
2023-10-07T12:05:52.196Z,5.00
2023-10-07T12:06:54.520Z,5.00
2023-10-07T12:08:00.678Z,5.00
2023-10-07T12:09:07.777Z,5.00
2023-10-07T12:10:16.674Z,5.00
2023-10-07T12:11:20.289Z,5.00
2023-10-07T12:12:24.075Z,5.00
2023-10-07T12:13:28.331Z,5.00
2023-10-07T12:14:34.258Z,5.00
2023-10-07T12:15:46.229Z,5.00
2023-10-07T12:16:56.646Z,5.00
2023-10-07T12:17:59.161Z,5.00
2023-10-07T12:19:01.381Z,5.00
2023-10-07T12:20:04.795Z,5.00
2023-10-07T12:21:13.563Z,5.00
2023-10-07T12:22:17.259Z,5.00
2023-10-07T12:23:19.706Z,5.00
2023-10-07T12:24:23.130Z,5.00
2023-10-07T12:25:25.305Z,5.00
2023-10-07T12:26:28.979Z,5.00
2023-10-07T12:27:32.113Z,5.00
2023-10-07T12:28:34.286Z,5.00
2023-10-07T12:29:36.500Z,5.00
2023-10-07T12:30:39.746Z,5.00
2023-10-07T12:31:43.858Z,5.00
2023-10-07T12:32:47.978Z,5.00
2023-10-07T12:33:51.933Z,5.00
2023-10-07T12:34:57.295Z,5.00
2023-10-07T12:35:59.470Z,5.00
2023-10-07T12:37:02.620Z,5.00
2023-10-07T12:38:05.189Z,5.00
2023-10-07T12:39:12.173Z,5.00
2023-10-07T12:40:18.542Z,5.00
2023-10-07T12:41:20.987Z,5.00
2023-10-07T12:42:26.873Z,4.83
2023-10-07T12:43:29.099Z,4.00
2023-10-07T12:44:32.269Z,4.00
2023-10-07T12:45:38.003Z,4.00
2023-10-07T12:46:42.417Z,4.00
2023-10-07T12:47:45.073Z,4.00
2023-10-07T12:48:48.502Z,4.00
2023-10-07T12:49:54.539Z,4.00
2023-10-07T12:50:57.769Z,4.00
2023-10-07T12:52:00.464Z,4.00
2023-10-07T12:53:05.691Z,4.00
2023-10-07T12:54:10.607Z,4.00
2023-10-07T12:55:14.186Z,4.00
2023-10-07T12:56:19.124Z,4.00
2023-10-07T12:57:22.565Z,4.00
2023-10-07T12:58:28.376Z,4.00
2023-10-07T12:59:36.838Z,4.00
2023-10-07T13:00:39.305Z,4.00
2023-10-07T13:01:42.591Z,4.00
2023-10-07T13:02:45.599Z,4.00
2023-10-07T13:03:49.514Z,4.00
2023-10-07T13:04:56.640Z,4.00
2023-10-07T13:06:02.535Z,4.00
2023-10-07T13:07:10.902Z,4.00
2023-10-07T13:08:16.735Z,4.00
2023-10-07T13:09:19.372Z,4.00
2023-10-07T13:10:22.750Z,4.00
2023-10-07T13:11:28.217Z,4.00
2023-10-07T13:12:34.223Z,4.00
2023-10-07T13:13:37.824Z,4.00
2023-10-07T13:14:42.284Z,4.00
2023-10-07T13:15:44.849Z,4.00
2023-10-07T13:16:49.776Z,4.00
2023-10-07T13:17:52.040Z,4.00
2023-10-07T13:18:55.568Z,4.00
2023-10-07T13:19:57.813Z,3.67
2023-10-07T13:21:00.368Z,3.00
2023-10-07T13:22:06.529Z,3.00
2023-10-07T13:23:12.384Z,3.00
2023-10-07T13:24:15.666Z,3.00
2023-10-07T13:25:20.932Z,3.00
2023-10-07T13:26:24.365Z,3.00
2023-10-07T13:27:27.675Z,3.00
2023-10-07T13:28:31.233Z,3.00
2023-10-07T13:29:36.063Z,3.00
2023-10-07T13:30:40.448Z,3.00
2023-10-07T13:31:42.632Z,3.00
2023-10-07T13:32:47.459Z,3.00
2023-10-07T13:33:49.823Z,3.00
2023-10-07T13:34:53.958Z,3.00
2023-10-07T13:35:57.685Z,3.00
2023-10-07T13:37:02.081Z,3.00
2023-10-07T13:38:04.692Z,2.50
2023-10-07T13:39:16.715Z,2.00
2023-10-07T13:40:20.932Z,2.00
2023-10-07T13:41:24.716Z,2.00
2023-10-07T13:42:27.523Z,2.00
2023-10-07T13:43:30.591Z,2.00
2023-10-07T13:44:35.223Z,2.00
2023-10-07T13:45:37.443Z,2.00
2023-10-07T13:46:40.930Z,2.00
2023-10-07T13:47:43.714Z,2.00
2023-10-07T13:48:46.996Z,2.00
2023-10-07T13:49:50.981Z,2.00
2023-10-07T13:51:01.286Z,2.00
2023-10-07T13:52:06.946Z,2.00
2023-10-07T13:53:16.995Z,2.00
2023-10-07T13:54:39.114Z,2.00
2023-10-07T13:55:58.817Z,2.00
2023-10-07T13:57:03.804Z,2.00
2023-10-07T13:58:07.204Z,2.00
2023-10-07T13:59:09.675Z,2.00
2023-10-07T14:00:29.234Z,2.00
2023-10-07T14:01:32.441Z,2.00
2023-10-07T14:02:34.757Z,2.00
2023-10-07T14:03:40.988Z,2.00
2023-10-07T14:04:43.402Z,2.00
2023-10-07T14:05:49.895Z,2.00
2023-10-07T14:06:55.919Z,2.00
2023-10-07T14:07:59.262Z,2.00
2023-10-07T14:09:02.373Z,2.00
2023-10-07T14:10:06.166Z,2.00
2023-10-07T14:11:09.436Z,2.00
2023-10-07T14:12:12.589Z,2.00
2023-10-07T14:13:15.076Z,2.00
2023-10-07T14:14:18.296Z,2.00
2023-10-07T14:15:22.020Z,2.00
2023-10-07T14:16:27.437Z,2.00
2023-10-07T14:17:31.394Z,2.00
2023-10-07T14:18:35.636Z,2.00
2023-10-07T14:19:38.388Z,2.00
2023-10-07T14:20:40.627Z,2.00
2023-10-07T14:21:46.594Z,2.00
2023-10-07T14:22:48.837Z,2.00
2023-10-07T14:23:52.736Z,2.00
2023-10-07T14:24:55.185Z,2.00
2023-10-07T14:25:58.572Z,2.00
2023-10-07T14:27:00.900Z,2.00
2023-10-07T14:28:05.419Z,2.00
2023-10-07T14:29:07.672Z,2.00
2023-10-07T14:30:15.364Z,2.00
2023-10-07T14:31:18.925Z,2.00
2023-10-07T14:32:22.117Z,2.00
2023-10-07T14:33:25.197Z,2.00
2023-10-07T14:34:28.340Z,2.00
2023-10-07T14:35:30.584Z,2.00
2023-10-07T14:36:35.230Z,2.00
2023-10-07T14:37:37.512Z,2.00
2023-10-07T14:38:41.151Z,2.00
2023-10-07T14:39:52.465Z,1.33
2023-10-07T14:41:00.469Z,1.00
2023-10-07T14:42:02.744Z,1.00
2023-10-07T14:43:06.492Z,1.00
2023-10-07T14:44:08.881Z,1.00
2023-10-07T14:45:13.245Z,1.00
2023-10-07T14:46:15.872Z,1.00